Latest Weather Observations for Point Fawcett

IDD60901

Issued at 5:51 pm CST Saturday 30 May 2015 (issued every 10 minutes, with the page automatically refreshed every 10 minutes)

About weather observations | Map of Darwin area stations | Latest observations for Darwin area | Other Formats
Station Details ID: 200731 Name: POINT FAWCETT Lat: -11.76 Lon: 130.03 Height: 6.5 m
Data from the previous 72 hours. | See also: Recent months at Point Fawcett
Date/Time
CST
Tmp

°C
App
Tmp
°C
Dew
Point
°C
Rel
Hum
%
Delta-T

°C
Wind Press
QNH
hPa
Press
MSL
hPa
Rain
since
9 am
mm
Dir
 
Spd
km/h
Gust
km/h
Spd
kts
Gust
kts
30/05:30pm 27.2 31.3 23.2 79 2.7 E 7 13 4 7 1010.1 - -
30/05:00pm 27.5 31.7 23.5 79 2.7 E 7 11 4 6 1010.0 - -
30/04:30pm 27.5 31.6 23.3 78 2.9 E 7 13 4 7 1009.8 - -
30/04:00pm 27.8 31.5 23.2 76 3.1 ESE 9 13 5 7 1009.9 - -
30/03:30pm 28.2 31.3 22.9 73 3.6 ESE 11 20 6 11 1009.8 - -
30/03:00pm 28.3 31.8 22.8 72 3.7 ESE 9 17 5 9 1010.0 1009.9 -
30/02:30pm 28.8 31.9 22.8 70 4.1 ESE 11 19 6 10 1010.6 - -
30/02:00pm 28.8 30.8 22.3 68 4.4 ESE 15 24 8 13 1011.0 - -
30/01:30pm 29.7 32.1 22.2 64 5.1 ESE 13 24 7 13 1011.3 - -
30/01:00pm 30.3 32.7 22.2 62 5.5 ESE 13 24 7 13 1011.6 - -
30/12:30pm 29.7 32.1 22.2 64 5.1 SSE 13 20 7 11 1012.2 - -
30/12:00pm 30.3 33.4 22.2 62 5.5 ESE 9 20 5 11 1012.5 1012.4 -
30/11:30am 29.9 32.9 22.6 65 5.0 SE 11 22 6 12 1012.8 - -
30/11:00am 29.2 32.6 22.7 68 4.4 SE 9 15 5 8 1013.0 - -
30/10:30am 28.7 31.8 22.9 71 4.0 S 11 24 6 13 1012.9 - -
30/10:00am 28.1 31.8 23.2 74 3.3 SSE 9 19 5 10 1013.6 - -
30/09:30am 27.8 31.5 23.2 76 3.1 S 9 15 5 8 1013.5 - -
30/09:00am 27.2 30.9 23.2 79 2.7 S 9 15 5 8 1013.4 1013.3 -
30/08:30am 26.8 31.1 24.3 86 1.7 S 9 15 5 8 1013.1 - -
30/08:00am 26.5 31.1 24.7 90 1.3 S 9 17 5 9 1012.5 - -
30/07:30am 25.6 29.7 24.0 91 1.1 S 9 11 5 6 1012.1 - -
30/07:00am 25.4 29.3 23.6 90 1.2 S 9 11 5 6 1012.1 - -
30/06:30am 25.7 30.0 23.7 89 1.4 S 7 9 4 5 1012.2 - -
30/06:00am 26.0 30.5 24.0 89 1.4 S 7 9 4 5 1012.2 1012.1 -
30/05:30am 25.9 30.1 24.1 90 1.2 S 9 13 5 7 1011.9 - -
30/05:00am 25.6 30.1 24.0 91 1.1 S 7 13 4 7 1011.9 - -
30/04:30am 25.4 30.1 24.0 92 1.0 SSE 6 9 3 5 1011.8 - -
30/04:00am 25.2 29.7 24.0 93 0.8 S 7 9 4 5 1011.8 - -
30/03:30am 23.7 27.4 22.3 92 0.9 SSE 6 7 3 4 1011.9 - -
30/03:00am 23.2 26.6 21.6 91 1.1 SSE 6 9 3 5 1011.9 1011.8 -
30/02:30am 23.2 26.3 21.5 90 1.1 S 7 9 4 5 1012.1 - -
30/02:00am 23.5 26.8 21.8 90 1.1 S 7 9 4 5 1012.4 - -
30/01:30am 23.7 27.0 21.8 89 1.3 ESE 7 9 4 5 1012.5 - -
30/01:00am 23.9 27.2 21.8 88 1.4 ESE 7 9 4 5 1012.6 - -
30/12:30am 24.6 28.4 22.7 89 1.3 E 7 11 4 6 1012.7 - -
30/12:00am 24.7 28.2 22.8 89 1.3 ENE 9 11 5 6 1012.7 1012.6 -
 
Date/Time
CST
Tmp

°C
App
Tmp
°C
Dew
Point
°C
Rel
Hum
%
Delta-T

°C
Wind Press
QNH
hPa
Press
MSL
hPa
Rain
since
9 am
mm
Dir
 
Spd
km/h
Gust
km/h
Spd
kts
Gust
kts
29/11:30pm 23.6 26.6 21.3 87 1.5 E 7 9 4 5 1012.7 - -
29/11:00pm 23.8 27.0 21.3 86 1.6 SE 6 6 3 3 1012.6 - -
29/10:30pm 23.9 27.2 21.4 86 1.6 SSE 6 7 3 4 1012.8 - -
29/10:00pm 24.0 27.3 21.5 86 1.7 SSE 6 9 3 5 1012.9 - -
29/09:30pm 24.2 27.5 21.5 85 1.8 ESE 6 7 3 4 1013.0 - -
29/09:00pm 24.2 27.2 21.3 84 1.9 SE 7 7 4 4 1013.1 1013.0 -
29/08:30pm 24.3 27.4 21.0 82 2.2 ESE 6 7 3 4 1012.9 - -
29/08:00pm 24.7 27.7 20.8 79 2.6 E 6 7 3 4 1012.6 - -
29/07:30pm 25.5 28.3 20.5 74 3.3 E 6 6 3 3 1012.5 - -
29/07:00pm 26.5 29.5 20.8 71 3.8 E 6 7 3 4 1012.2 - -
29/06:30pm 27.7 30.7 21.3 68 4.3 E 7 11 4 6 1012.2 - -
29/06:00pm 28.2 30.7 21.0 65 4.8 E 9 15 5 8 1011.8 1011.7 -
29/05:30pm 28.8 31.1 21.3 64 5.0 E 11 20 6 11 1011.5 - -
29/05:00pm 29.3 30.7 21.0 61 5.5 E 15 26 8 14 1011.2 - -
29/04:30pm 29.8 31.9 21.7 61 5.5 E 13 19 7 10 1011.0 - -
29/04:00pm 30.9 34.4 22.8 62 5.5 E 9 15 5 8 1010.9 - -
29/03:30pm 31.2 33.7 22.5 60 5.9 ESE 13 26 7 14 1010.8 - -
29/03:00pm 32.3 34.8 22.4 56 6.8 ESE 13 24 7 13 1010.8 1010.7 -
29/02:30pm 32.5 34.7 22.6 56 6.8 ESE 15 20 8 11 1011.0 - -
29/02:00pm 32.8 35.5 22.9 56 6.8 ESE 13 22 7 12 1011.3 - -
29/01:30pm 32.2 34.1 22.0 55 6.9 ESE 15 28 8 15 1011.7 - -
29/01:00pm 32.4 35.1 22.2 55 7.0 ESE 11 20 6 11 1012.0 - -
29/12:30pm 32.5 34.5 22.3 55 7.0 ESE 15 28 8 15 1012.5 - -
29/12:00pm 32.0 34.3 22.1 55 6.7 ESE 13 22 7 12 1013.2 1013.1 -
29/11:30am 31.0 32.3 20.9 55 6.7 ESE 15 26 8 14 1013.8 - -
29/11:00am 31.1 33.8 22.1 58 6.1 SE 11 19 6 10 1014.2 - -
29/10:30am 30.3 33.3 22.7 64 5.2 ESE 11 17 6 9 1014.5 - -
29/10:00am 29.5 32.7 23.0 68 4.4 SE 11 20 6 11 1014.5 - -
29/09:00am 26.4 31.8 25.2 93 0.8 ESE 6 9 3 5 1014.4 1014.3 -
29/08:30am 24.4 29.1 23.9 97 0.3 SE 6 7 3 4 1014.0 - -
29/08:00am 21.0 23.5 20.3 96 0.4 ESE 7 9 4 5 1013.7 - -
29/07:30am 19.2 20.9 18.5 96 0.4 E 7 9 4 5 1013.3 - -
29/07:00am 18.7 20.2 18.0 96 0.4 ESE 7 7 4 4 1012.9 - -
29/06:30am 18.7 20.1 17.9 95 0.5 ESE 7 9 4 5 1012.7 - -
29/06:00am 18.6 20.0 17.8 95 0.5 ESE 7 9 4 5 1012.7 1012.6 -
29/05:30am 18.5 19.9 17.7 95 0.5 ESE 7 9 4 5 1012.6 - -
29/05:00am 18.5 19.9 17.7 95 0.5 SE 7 9 4 5 1012.5 - -
29/04:30am 18.6 20.0 17.8 95 0.5 SE 7 9 4 5 1012.2 - -
29/04:00am 18.8 20.3 18.0 95 0.5 SE 7 9 4 5 1012.1 - -
29/03:30am 18.8 20.3 18.0 95 0.5 ESE 7 9 4 5 1012.3 - -
29/03:00am 18.6 19.6 17.8 95 0.5 SE 9 9 5 5 1012.4 1012.3 -
29/02:30am 18.4 19.6 17.4 94 0.6 SE 7 9 4 5 1012.4 - -
29/02:00am 18.5 19.4 17.5 94 0.6 SE 9 9 5 5 1012.6 - -
29/01:30am 18.4 19.6 17.4 94 0.6 SE 7 9 4 5 1012.7 - -
29/01:00am 18.5 19.3 17.3 93 0.7 SE 9 9 5 5 1013.0 - -
29/12:30am 18.6 19.4 17.4 93 0.7 SE 9 9 5 5 1012.7 - -
29/12:00am 18.7 19.5 17.4 92 0.8 SSE 9 9 5 5 1012.7 1012.6 -
 
Date/Time
CST
Tmp

°C
App
Tmp
°C
Dew
Point
°C
Rel
Hum
%
Delta-T

°C
Wind Press
QNH
hPa
Press
MSL
hPa
Rain
since
9 am
mm
Dir
 
Spd
km/h
Gust
km/h
Spd
kts
Gust
kts
28/11:30pm 18.8 20.0 17.3 91 0.9 SE 7 9 4 5 1012.8 - -
28/11:00pm 19.1 20.4 17.6 91 0.9 ESE 7 7 4 4 1013.1 - -
28/10:30pm 19.4 20.8 17.7 90 1.0 ESE 7 9 4 5 1013.1 - -
28/10:00pm 19.7 21.1 17.8 89 1.2 E 7 7 4 4 1013.1 - -
28/09:30pm 20.3 22.1 18.2 88 1.3 ESE 6 7 3 4 1012.8 - -
28/09:00pm 20.9 22.7 18.7 87 1.4 E 7 7 4 4 1012.6 1012.5 -
28/08:30pm 21.5 23.4 18.9 85 1.6 E 7 9 4 5 1012.5 - -
28/08:00pm 22.1 23.8 19.3 84 1.8 ENE 9 11 5 6 1012.3 - -
28/07:30pm 22.6 24.6 19.2 81 2.2 E 7 9 4 5 1012.1 - -
28/07:00pm 23.4 25.3 18.9 76 2.9 E 7 9 4 5 1011.8 - -
28/06:30pm 25.2 27.6 19.6 71 3.6 E 6 7 3 4 1011.5 - -
28/06:00pm 27.3 29.8 19.9 64 4.8 ESE 6 6 3 3 1011.2 1011.1 -
28/05:30pm 30.2 32.3 20.2 55 6.6 E 9 15 5 8 1010.8 - -
28/05:00pm 30.5 33.2 20.7 55 6.5 E 7 13 4 7 1010.5 - -
28/04:30pm 30.1 32.2 20.9 57 6.1 E 11 20 6 11 1010.4 - -
28/04:00pm 30.3 33.0 21.4 59 6.0 ESE 9 19 5 10 1010.3 - -
28/03:30pm 30.2 31.2 20.2 55 6.6 E 15 26 8 14 1010.5 - -
28/03:00pm 31.6 34.9 23.2 61 5.8 SE 11 20 6 11 1010.6 1010.5 -
28/02:30pm 29.9 32.5 22.6 65 5.0 SE 13 20 7 11 1010.8 - -
28/02:00pm 30.8 33.9 23.5 65 5.0 SE 13 26 7 14 1011.2 - -
28/01:30pm 31.3 34.4 22.9 61 5.8 ESE 11 19 6 10 1011.7 - -
28/01:00pm 31.9 34.3 22.9 59 6.2 E 15 22 8 12 1012.2 - -
28/12:30pm 31.5 33.7 21.9 56 6.5 ESE 13 22 7 12 1012.7 - -
28/12:00pm 31.1 33.9 23.0 62 5.6 ESE 13 19 7 10 1013.2 1013.1 -
28/11:30am 30.3 33.1 23.0 65 5.0 E 13 20 7 11 1013.6 - -
28/11:00am 30.3 32.4 22.5 63 5.3 E 15 26 8 14 1013.6 - -
28/10:30am 29.9 32.8 23.8 70 4.2 E 15 28 8 15 1013.9 - -
28/10:00am 29.2 32.0 23.6 72 3.9 E 15 22 8 12 1013.7 - -
28/09:30am 27.7 33.3 25.7 89 1.4 E 7 13 4 7 1013.8 - -
28/09:00am 25.8 31.4 24.8 94 0.7 ESE 4 11 2 6 1013.6 1013.5 -
28/08:30am 25.1 29.7 24.2 95 0.6 E 7 11 4 6 1013.4 - -
28/08:00am 24.5 28.8 23.6 95 0.6 E 7 11 4 6 1012.9 - -
28/07:30am 23.4 27.1 22.6 95 0.5 E 7 11 4 6 1012.8 - -
28/07:00am 21.9 24.9 20.9 94 0.7 ESE 6 7 3 4 1012.5 - -
28/06:30am 21.9 24.7 20.9 94 0.7 ESE 7 9 4 5 1012.1 - -
28/06:00am 22.1 25.2 21.1 94 0.7 SE 6 7 3 4 1012.0 1011.9 -
28/05:30am 22.1 25.0 21.1 94 0.7 SE 7 7 4 4 1011.7 - -
28/05:00am 22.0 25.1 21.0 94 0.7 SE 6 7 3 4 1011.6 - -
28/04:30am 22.0 24.9 21.0 94 0.7 SE 7 7 4 4 1011.5 - -
28/04:00am 22.0 25.1 21.0 94 0.7 SSE 6 7 3 4 1011.4 - -
28/03:30am 21.7 24.3 20.5 93 0.8 SSE 7 9 4 5 1011.4 - -
28/03:00am 21.3 23.6 19.9 92 0.9 SSE 7 9 4 5 1011.4 1011.3 -
28/02:30am 21.3 23.6 19.9 92 0.9 S 7 9 4 5 1011.7 - -
28/02:00am 21.3 23.8 19.8 91 1.0 SSE 6 7 3 4 1012.0 - -
28/01:30am 21.8 24.2 20.1 90 1.1 S 7 9 4 5 1012.1 - -
28/01:00am 22.2 24.6 20.1 88 1.4 SSW 7 9 4 5 1012.2 - -
28/12:30am 22.4 24.7 19.9 86 1.6 SE 7 7 4 4 1012.4 - -
28/12:00am 23.8 26.6 21.5 87 1.5 E 9 11 5 6 1012.5 1012.4 -
 
Date/Time
CST
Tmp

°C
App
Tmp
°C
Dew
Point
°C
Rel
Hum
%
Delta-T

°C
Wind Press
QNH
hPa
Press
MSL
hPa
Rain
since
9 am
mm
Dir
 
Spd
km/h
Gust
km/h
Spd
kts
Gust
kts
27/11:30pm 24.2 27.4 22.3 89 1.3 ENE 9 13 5 7 1012.6 - -
27/11:00pm 24.2 27.8 22.3 89 1.3 E 7 11 4 6 1012.7 - -
27/10:30pm 24.3 27.4 22.2 88 1.4 ENE 9 13 5 7 1012.7 - -
27/10:00pm 23.5 25.8 20.6 84 1.9 ENE 9 13 5 7 1012.8 - -
27/09:30pm 22.5 23.9 18.7 79 2.4 ENE 9 11 5 6 1012.7 - -
27/09:00pm 23.1 24.4 18.4 75 3.0 ENE 9 11 5 6 1012.5 1012.4 -
27/08:30pm 22.2 23.2 17.8 76 2.7 ENE 9 13 5 7 1012.3 - -
27/08:00pm 22.7 23.9 17.4 72 3.3 E 7 9 4 5 1012.0 - -
27/07:30pm 23.7 25.1 17.7 69 3.7 ESE 7 9 4 5 1011.6 - -
27/07:00pm 25.7 26.9 17.4 60 5.2 E 7 9 4 5 1011.3 - -
27/06:30pm 27.9 28.7 17.4 52 6.6 ENE 9 13 5 7 1010.9 - -
27/06:00pm 30.0 30.6 17.8 48 7.8 E 11 15 6 8 1010.7 1010.6 -

Latest Capital City Observations: Canberra | Sydney | Melbourne | Brisbane | Adelaide | Perth | Hobart | Darwin

Other Formats:

Comma delimited format used in spreadsheet applications
http://www.bom.gov.au/fwo/IDD60901/IDD60901.94122.axf

JavaScript Object Notation format (JSON) in row-major order
http://www.bom.gov.au/fwo/IDD60901/IDD60901.94122.json